createdAt,value
2023-09-28T00:00:49.166Z,84.92
2023-09-28T00:03:19.775Z,84.24
2023-09-28T00:05:50.784Z,84.30
2023-09-28T00:08:21.694Z,84.05
2023-09-28T00:10:52.865Z,84.06
2023-09-28T00:13:23.490Z,84.31
2023-09-28T00:15:56.737Z,84.37
2023-09-28T00:18:29.922Z,84.19
2023-09-28T00:21:00.630Z,84.58
2023-09-28T00:23:31.824Z,84.38
2023-09-28T00:26:03.237Z,84.07
2023-09-28T00:28:34.166Z,83.48
2023-09-28T00:31:08.487Z,83.01
2023-09-28T00:33:39.400Z,83.37
2023-09-28T00:36:10.000Z,83.06
2023-09-28T00:38:41.003Z,82.00
2023-09-28T00:41:12.633Z,82.16
2023-09-28T00:43:43.665Z,81.25
2023-09-28T00:46:19.249Z,82.12
2023-09-28T00:49:00.152Z,82.32
2023-09-28T00:51:31.137Z,82.84
2023-09-28T00:54:03.632Z,82.79
2023-09-28T00:56:35.041Z,82.44
2023-09-28T00:59:08.213Z,82.24
2023-09-28T01:01:42.392Z,82.41
2023-09-28T01:04:13.209Z,82.02
2023-09-28T01:06:44.064Z,80.20
2023-09-28T01:09:16.215Z,80.48
2023-09-28T01:11:52.200Z,80.55
2023-09-28T01:14:24.028Z,80.24
2023-09-28T01:16:56.603Z,79.66
2023-09-28T01:19:26.147Z,79.67
2023-09-28T01:21:56.932Z,78.97
2023-09-28T01:24:29.887Z,79.01
2023-09-28T01:27:00.790Z,80.03
2023-09-28T01:29:33.110Z,79.85
2023-09-28T01:32:04.808Z,80.12
2023-09-28T01:34:35.843Z,79.78
2023-09-28T01:37:06.582Z,79.63
2023-09-28T01:39:38.963Z,80.08
2023-09-28T01:42:09.379Z,80.23
2023-09-28T01:44:39.941Z,79.48
2023-09-28T01:47:10.597Z,80.60
2023-09-28T01:49:41.409Z,80.74
2023-09-28T01:52:12.463Z,80.93
2023-09-28T01:54:45.935Z,80.65
2023-09-28T01:57:18.206Z,80.82
2023-09-28T01:59:48.776Z,81.44
2023-09-28T02:02:19.564Z,82.50
2023-09-28T02:04:51.061Z,84.25
2023-09-28T02:07:22.939Z,83.89
2023-09-28T02:09:55.208Z,84.36
2023-09-28T02:12:25.749Z,84.45
2023-09-28T02:14:59.224Z,84.91
2023-09-28T02:17:31.699Z,83.93
2023-09-28T02:20:07.069Z,84.79
2023-09-28T02:22:38.060Z,84.07
2023-09-28T02:25:12.435Z,84.13
2023-09-28T02:27:44.051Z,84.37
2023-09-28T02:30:15.868Z,83.89
2023-09-28T02:32:47.624Z,83.37
2023-09-28T02:35:19.300Z,83.90
2023-09-28T02:37:51.433Z,84.28
2023-09-28T02:40:23.906Z,84.37
2023-09-28T02:42:54.743Z,84.12
2023-09-28T02:45:25.435Z,83.46
2023-09-28T02:47:57.030Z,83.80
2023-09-28T02:50:27.536Z,84.21
2023-09-28T02:52:58.972Z,84.50
2023-09-28T02:55:32.397Z,84.68
2023-09-28T02:58:03.879Z,84.23
2023-09-28T03:00:35.513Z,83.55
2023-09-28T03:03:07.556Z,82.15
2023-09-28T03:05:41.057Z,81.44
2023-09-28T03:08:12.464Z,82.33
2023-09-28T03:10:45.836Z,82.27
2023-09-28T03:13:16.682Z,81.39
2023-09-28T03:15:49.837Z,81.06
2023-09-28T03:18:22.653Z,81.91
2023-09-28T03:20:53.870Z,82.12
2023-09-28T03:23:26.728Z,80.53
2023-09-28T03:26:01.295Z,81.83
2023-09-28T03:28:34.497Z,79.87
2023-09-28T03:31:05.036Z,79.47
2023-09-28T03:33:35.819Z,78.44
2023-09-28T03:36:06.567Z,78.79
2023-09-28T03:38:38.116Z,78.63
2023-09-28T03:41:10.501Z,79.42
2023-09-28T03:43:41.127Z,78.31
2023-09-28T03:46:12.107Z,78.66
2023-09-28T03:48:42.960Z,77.23
2023-09-28T03:51:14.267Z,76.89
2023-09-28T03:53:59.019Z,77.00
2023-09-28T03:56:32.116Z,76.76
2023-09-28T03:59:02.947Z,76.49
2023-09-28T04:01:33.720Z,76.38
2023-09-28T04:04:04.741Z,75.92
2023-09-28T04:06:35.504Z,75.86
2023-09-28T04:09:09.711Z,76.25
2023-09-28T04:11:42.164Z,74.09
2023-09-28T04:14:14.093Z,73.40
2023-09-28T04:16:45.472Z,73.43
2023-09-28T04:19:17.578Z,73.02
2023-09-28T04:21:54.191Z,72.93
2023-09-28T04:24:26.301Z,72.21
2023-09-28T04:27:04.000Z,72.66
2023-09-28T04:29:38.276Z,71.69
2023-09-28T04:32:09.796Z,70.60
2023-09-28T04:34:44.129Z,71.13
2023-09-28T04:37:14.879Z,72.16
2023-09-28T04:39:53.476Z,72.88
2023-09-28T04:42:30.533Z,75.34
2023-09-28T04:45:10.629Z,76.18
2023-09-28T04:47:42.140Z,77.00
2023-09-28T04:50:14.945Z,77.71
2023-09-28T04:52:46.344Z,76.54
2023-09-28T04:55:17.298Z,76.46
2023-09-28T04:57:54.317Z,74.33
2023-09-28T05:00:25.127Z,74.16
2023-09-28T05:02:56.584Z,73.03
2023-09-28T05:05:27.533Z,72.64
2023-09-28T05:07:58.454Z,72.83
2023-09-28T05:10:29.394Z,72.19
2023-09-28T05:13:01.715Z,72.05
2023-09-28T05:15:32.794Z,72.56
2023-09-28T05:18:05.231Z,74.41
2023-09-28T05:20:36.825Z,75.12
2023-09-28T05:23:07.814Z,76.28
2023-09-28T05:25:39.996Z,76.24
2023-09-28T05:28:14.052Z,76.68
2023-09-28T05:30:45.067Z,76.91
2023-09-28T05:33:15.981Z,76.36
2023-09-28T05:35:50.974Z,76.10
2023-09-28T05:38:23.508Z,75.40
2023-09-28T05:40:54.259Z,74.21
2023-09-28T05:43:27.521Z,74.20
2023-09-28T05:45:59.234Z,72.92
2023-09-28T05:48:30.409Z,71.62
2023-09-28T05:51:01.426Z,71.54
2023-09-28T05:53:34.985Z,71.10
2023-09-28T05:56:08.374Z,71.40
2023-09-28T05:58:39.788Z,71.87
2023-09-28T06:01:15.995Z,72.29
2023-09-28T06:03:47.106Z,72.54
2023-09-28T06:06:18.301Z,72.58
2023-09-28T06:08:49.682Z,72.33
2023-09-28T06:11:23.898Z,73.34
2023-09-28T06:14:07.552Z,73.71
2023-09-28T06:16:39.887Z,72.89
2023-09-28T06:19:10.998Z,73.18
2023-09-28T06:21:41.995Z,73.01
2023-09-28T06:24:16.706Z,73.54
2023-09-28T06:26:47.546Z,73.14
2023-09-28T06:29:28.357Z,73.29
2023-09-28T06:32:00.073Z,73.62
2023-09-28T06:34:30.675Z,73.99
2023-09-28T06:37:03.769Z,73.22
2023-09-28T06:39:35.644Z,72.99
2023-09-28T06:42:22.408Z,73.78
2023-09-28T06:45:00.279Z,74.40
2023-09-28T06:47:46.551Z,75.09
2023-09-28T06:50:27.613Z,75.60
2023-09-28T06:53:01.443Z,74.94
2023-09-28T06:55:32.923Z,74.86
2023-09-28T06:58:08.825Z,74.25
2023-09-28T07:00:41.594Z,72.99
2023-09-28T07:03:15.107Z,74.36
2023-09-28T07:05:48.180Z,74.30
2023-09-28T07:08:20.182Z,74.20
2023-09-28T07:10:52.599Z,74.22
2023-09-28T07:13:24.382Z,74.34
2023-09-28T07:16:01.203Z,73.75
2023-09-28T07:18:31.939Z,73.45
2023-09-28T07:21:03.151Z,74.05
2023-09-28T07:23:34.340Z,73.21
2023-09-28T07:26:04.975Z,71.82
2023-09-28T07:28:35.655Z,72.00
2023-09-28T07:31:07.825Z,72.31
2023-09-28T07:33:40.079Z,70.98
2023-09-28T07:36:12.111Z,70.92
2023-09-28T07:38:43.760Z,70.92
2023-09-28T07:41:14.610Z,71.42
2023-09-28T07:43:45.069Z,70.82
2023-09-28T07:46:21.086Z,71.15
2023-09-28T07:48:51.614Z,70.66
2023-09-28T07:51:23.444Z,70.18
2023-09-28T07:53:56.412Z,71.15
2023-09-28T07:56:27.638Z,70.34
2023-09-28T07:59:02.564Z,71.35
2023-09-28T08:01:42.912Z,71.69
2023-09-28T08:04:14.352Z,70.74
2023-09-28T08:06:48.080Z,70.55
2023-09-28T08:09:19.002Z,70.19
2023-09-28T08:11:53.456Z,69.40
2023-09-28T08:14:24.397Z,69.49
2023-09-28T08:16:57.409Z,69.05
2023-09-28T08:19:29.165Z,68.74
2023-09-28T08:22:02.162Z,68.31
2023-09-28T08:24:34.462Z,69.03
2023-09-28T08:27:07.034Z,69.35
2023-09-28T08:29:39.996Z,69.48
2023-09-28T08:32:12.851Z,68.98
2023-09-28T08:34:45.329Z,69.33
2023-09-28T08:37:16.313Z,69.84
2023-09-28T08:39:48.580Z,69.89
2023-09-28T08:42:25.360Z,69.88
2023-09-28T08:45:02.648Z,69.37
2023-09-28T08:47:38.713Z,69.71
2023-09-28T08:50:10.858Z,69.34
2023-09-28T08:52:42.171Z,69.47
2023-09-28T08:55:14.916Z,68.37
2023-09-28T08:57:46.227Z,68.55
2023-09-28T09:00:17.666Z,68.44
2023-09-28T09:02:55.073Z,69.22
2023-09-28T09:05:31.780Z,69.12
2023-09-28T09:08:04.705Z,69.58
2023-09-28T09:10:35.541Z,69.46
2023-09-28T09:13:07.717Z,69.75
2023-09-28T09:15:40.165Z,69.03
2023-09-28T09:18:16.257Z,69.63
2023-09-28T09:20:49.378Z,69.16
2023-09-28T09:23:23.382Z,69.28
2023-09-28T09:25:58.587Z,69.33
2023-09-28T09:28:36.164Z,69.36
2023-09-28T09:31:07.397Z,69.92
2023-09-28T09:33:40.868Z,70.55
2023-09-28T09:36:12.117Z,70.57
2023-09-28T09:38:42.982Z,70.24
2023-09-28T09:41:14.519Z,70.55
2023-09-28T09:43:45.503Z,70.44
2023-09-28T09:46:18.287Z,71.08
2023-09-28T09:48:52.325Z,70.21
2023-09-28T09:51:23.976Z,69.64
2023-09-28T09:53:55.802Z,70.25
2023-09-28T09:56:26.762Z,70.47
2023-09-28T09:58:59.910Z,70.37
2023-09-28T10:01:34.852Z,70.82
2023-09-28T10:04:15.283Z,70.14
2023-09-28T10:06:48.139Z,69.39
2023-09-28T10:09:20.309Z,70.23
2023-09-28T10:11:52.741Z,70.67
2023-09-28T10:14:24.196Z,71.12
2023-09-28T10:16:59.065Z,71.04
2023-09-28T10:19:33.298Z,70.50
2023-09-28T10:22:04.134Z,70.90
2023-09-28T10:24:37.711Z,72.06
2023-09-28T10:27:12.953Z,72.52
2023-09-28T10:29:50.090Z,73.08
2023-09-28T10:32:34.506Z,72.74
2023-09-28T10:35:31.932Z,72.61
2023-09-28T10:38:24.889Z,72.18
2023-09-28T10:41:13.234Z,72.44
2023-09-28T10:43:52.229Z,72.09
2023-09-28T10:46:26.655Z,72.21
2023-09-28T10:51:51.476Z,73.18
2023-09-28T10:54:25.419Z,73.30
2023-09-28T10:56:57.199Z,73.24
2023-09-28T10:59:28.470Z,73.61
2023-09-28T11:02:02.178Z,73.05
2023-09-28T11:04:48.037Z,72.93
2023-09-28T11:07:23.889Z,73.21
2023-09-28T11:09:56.016Z,73.48
2023-09-28T11:12:34.096Z,73.76
2023-09-28T11:15:06.394Z,74.09
2023-09-28T11:17:40.398Z,74.12
2023-09-28T11:20:15.444Z,75.21
2023-09-28T11:22:48.443Z,75.31
2023-09-28T11:25:39.123Z,75.61
2023-09-28T11:28:15.118Z,75.69
2023-09-28T11:30:49.947Z,76.68
2023-09-28T11:33:26.338Z,76.98
2023-09-28T11:35:57.319Z,77.70
2023-09-28T11:38:31.288Z,78.34
2023-09-28T11:41:06.313Z,79.22
2023-09-28T11:43:50.486Z,79.27
2023-09-28T11:46:28.797Z,80.09
2023-09-28T11:49:09.210Z,80.13
2023-09-28T11:51:41.936Z,79.62
2023-09-28T11:54:28.122Z,79.41
2023-09-28T11:57:01.322Z,79.05
2023-09-28T11:59:33.965Z,79.22
2023-09-28T12:05:03.343Z,79.73
2023-09-28T12:07:36.702Z,79.86
2023-09-28T12:10:11.758Z,79.20
2023-09-28T12:12:46.256Z,78.44
2023-09-28T12:15:19.642Z,78.70
2023-09-28T12:17:51.382Z,78.42
2023-09-28T12:20:25.613Z,78.39
2023-09-28T12:23:00.196Z,78.22
2023-09-28T12:25:36.791Z,78.38
2023-09-28T12:28:13.275Z,78.19
2023-09-28T12:30:49.077Z,78.01
2023-09-28T12:33:20.014Z,78.35
2023-09-28T12:35:51.464Z,78.66
2023-09-28T12:38:23.299Z,78.53
2023-09-28T12:40:59.648Z,78.36
2023-09-28T12:43:32.018Z,77.82
2023-09-28T12:46:04.201Z,78.14
2023-09-28T12:48:36.097Z,77.50
2023-09-28T12:51:07.924Z,77.44
2023-09-28T12:53:41.849Z,77.98
2023-09-28T12:56:16.401Z,78.30
2023-09-28T12:58:48.480Z,78.64
2023-09-28T13:01:20.282Z,79.08
2023-09-28T13:03:55.092Z,78.74
2023-09-28T13:06:29.465Z,79.30
2023-09-28T13:09:09.484Z,78.98
2023-09-28T13:11:42.332Z,78.94
2023-09-28T13:14:21.805Z,79.01
2023-09-28T13:16:52.934Z,79.49
2023-09-28T13:19:28.088Z,79.38
2023-09-28T13:22:02.177Z,79.83
2023-09-28T13:24:35.849Z,80.40
2023-09-28T13:27:15.306Z,80.71
2023-09-28T13:29:45.985Z,81.25
2023-09-28T13:32:17.949Z,81.28
2023-09-28T13:34:50.583Z,81.87
2023-09-28T13:37:21.837Z,81.87
2023-09-28T13:39:52.529Z,82.25
2023-09-28T13:42:32.041Z,82.45
2023-09-28T13:45:03.990Z,82.69
2023-09-28T13:47:40.239Z,82.90
2023-09-28T13:50:13.813Z,82.38
2023-09-28T13:52:45.612Z,82.88
2023-09-28T13:55:22.692Z,82.95
2023-09-28T13:57:58.667Z,82.23
2023-09-28T14:00:48.859Z,81.84
2023-09-28T14:03:22.080Z,81.61
2023-09-28T14:05:58.533Z,81.79
2023-09-28T14:08:31.596Z,81.60
2023-09-28T14:11:03.967Z,81.46
2023-09-28T14:13:40.310Z,81.34
2023-09-28T14:16:11.240Z,81.92
2023-09-28T14:18:45.104Z,81.96
2023-09-28T14:21:16.020Z,82.17
2023-09-28T14:23:49.018Z,82.06
2023-09-28T14:26:22.564Z,82.70
2023-09-28T14:28:56.883Z,82.75
2023-09-28T14:31:27.545Z,82.99
2023-09-28T14:33:58.676Z,83.15
2023-09-28T14:36:30.352Z,83.47
2023-09-28T14:39:01.974Z,83.74
2023-09-28T14:41:32.715Z,83.85
2023-09-28T14:44:08.291Z,84.03
2023-09-28T14:46:38.873Z,82.82
2023-09-28T14:49:09.364Z,82.65
2023-09-28T14:51:40.824Z,82.58
2023-09-28T14:54:12.990Z,82.09
2023-09-28T14:56:46.374Z,82.08
2023-09-28T14:59:18.724Z,81.31
2023-09-28T15:01:51.888Z,79.05
2023-09-28T15:04:28.607Z,78.12
2023-09-28T15:07:01.103Z,77.56
2023-09-28T15:09:32.307Z,77.84
2023-09-28T15:12:08.062Z,78.62
2023-09-28T15:14:43.366Z,78.20
2023-09-28T15:17:16.448Z,77.62
2023-09-28T15:19:48.408Z,77.73
2023-09-28T15:22:21.366Z,77.85
2023-09-28T15:24:55.106Z,78.15
2023-09-28T15:27:25.811Z,78.02
2023-09-28T15:29:58.075Z,77.21
2023-09-28T15:32:29.747Z,77.55
2023-09-28T15:35:02.486Z,77.32
2023-09-28T15:37:33.954Z,78.06
2023-09-28T15:40:07.390Z,78.59
2023-09-28T15:42:41.044Z,79.90
2023-09-28T15:45:18.961Z,80.62
2023-09-28T15:47:50.502Z,80.50
2023-09-28T15:50:27.094Z,80.44
2023-09-28T15:53:02.612Z,80.35
2023-09-28T15:55:34.849Z,80.61
2023-09-28T15:58:09.536Z,80.83
2023-09-28T16:00:42.015Z,80.73
2023-09-28T16:03:15.649Z,81.31
2023-09-28T16:05:50.047Z,81.36
2023-09-28T16:08:28.882Z,81.58
2023-09-28T16:11:01.028Z,81.74
2023-09-28T16:13:34.736Z,82.17
2023-09-28T16:16:07.735Z,82.15
2023-09-28T16:18:40.578Z,82.20
2023-09-28T16:21:15.308Z,82.32
2023-09-28T16:23:48.707Z,82.59
2023-09-28T16:26:20.884Z,82.06
2023-09-28T16:28:51.933Z,81.64
2023-09-28T16:31:27.757Z,81.93
2023-09-28T16:33:59.853Z,81.49
2023-09-28T16:36:30.542Z,81.73
2023-09-28T16:39:01.343Z,81.72
2023-09-28T16:41:32.151Z,81.38
2023-09-28T16:44:03.054Z,81.21
2023-09-28T16:46:38.960Z,81.32
2023-09-28T16:49:10.701Z,81.35
2023-09-28T16:51:41.504Z,81.06
2023-09-28T16:54:16.075Z,81.15
2023-09-28T16:56:51.202Z,81.32
2023-09-28T16:59:22.207Z,81.39
2023-09-28T17:01:56.118Z,81.04
2023-09-28T17:04:30.439Z,80.95
2023-09-28T17:07:01.608Z,81.06
2023-09-28T17:09:33.776Z,80.81
2023-09-28T17:12:07.560Z,81.06
2023-09-28T17:14:39.592Z,80.66
2023-09-28T17:17:13.446Z,80.60
2023-09-28T17:19:50.322Z,80.66
2023-09-28T17:22:21.729Z,80.65
2023-09-28T17:24:52.193Z,80.69
2023-09-28T17:27:23.583Z,80.69
2023-09-28T17:29:57.522Z,80.15
2023-09-28T17:32:29.747Z,80.20
2023-09-28T17:35:00.899Z,80.01
2023-09-28T17:37:32.284Z,79.82
2023-09-28T17:40:06.470Z,79.70
2023-09-28T17:42:39.774Z,79.55
2023-09-28T17:45:15.360Z,79.87
2023-09-28T17:47:53.992Z,79.52
2023-09-28T17:50:26.535Z,79.64
2023-09-28T17:52:57.305Z,79.73
2023-09-28T17:55:29.480Z,79.58
2023-09-28T17:57:59.944Z,79.60
2023-09-28T18:00:30.520Z,79.49
2023-09-28T18:03:08.645Z,79.79
2023-09-28T18:05:40.500Z,79.94
2023-09-28T18:08:12.956Z,80.03
2023-09-28T18:10:43.350Z,79.64
2023-09-28T18:13:17.829Z,79.48
2023-09-28T18:15:51.172Z,79.84
2023-09-28T18:18:24.178Z,79.77
2023-09-28T18:20:55.511Z,79.31
2023-09-28T18:23:26.831Z,79.63
2023-09-28T18:25:57.517Z,79.59
2023-09-28T18:28:29.653Z,79.79
2023-09-28T18:31:01.229Z,79.20
2023-09-28T18:33:34.105Z,78.96
2023-09-28T18:36:04.824Z,79.09
2023-09-28T18:38:35.671Z,78.97
2023-09-28T18:41:09.908Z,78.78
2023-09-28T18:43:40.655Z,79.24
2023-09-28T18:46:11.254Z,79.20
2023-09-28T18:48:45.221Z,78.79
2023-09-28T18:51:17.685Z,78.67
2023-09-28T18:53:48.373Z,78.37
2023-09-28T18:56:19.473Z,78.54
2023-09-28T18:58:52.471Z,78.51
2023-09-28T19:01:24.428Z,78.41
2023-09-28T19:03:58.557Z,78.71
2023-09-28T19:06:29.465Z,78.72
2023-09-28T19:09:00.328Z,78.29
2023-09-28T19:11:31.271Z,78.51
2023-09-28T19:14:01.982Z,78.24
2023-09-28T19:16:34.439Z,78.39
2023-09-28T19:19:12.632Z,77.88
2023-09-28T19:21:44.129Z,77.98
2023-09-28T19:24:15.776Z,77.93
2023-09-28T19:26:47.488Z,77.87
2023-09-28T19:29:18.226Z,78.33
2023-09-28T19:31:50.401Z,77.49
2023-09-28T19:34:22.845Z,77.51
2023-09-28T19:37:02.538Z,76.98
2023-09-28T19:39:33.860Z,77.00
2023-09-28T19:42:05.964Z,77.24
2023-09-28T19:44:39.404Z,77.15
2023-09-28T19:47:11.674Z,76.68
2023-09-28T19:49:43.990Z,76.71
2023-09-28T19:52:14.922Z,76.94
2023-09-28T19:54:45.692Z,77.27
2023-09-28T19:57:16.298Z,77.37
2023-09-28T19:59:46.768Z,77.06
2023-09-28T20:02:18.391Z,76.81
2023-09-28T20:04:52.160Z,76.80
2023-09-28T20:07:22.988Z,77.03
2023-09-28T20:09:55.063Z,76.75
2023-09-28T20:12:25.699Z,77.03
2023-09-28T20:14:56.359Z,76.89
2023-09-28T20:17:26.973Z,76.73
2023-09-28T20:20:00.002Z,76.69
2023-09-28T20:22:41.638Z,76.77
2023-09-28T20:25:21.215Z,76.74
2023-09-28T20:27:51.962Z,76.68
2023-09-28T20:30:22.484Z,76.91
2023-09-28T20:32:53.573Z,76.88
2023-09-28T20:35:26.619Z,76.79
2023-09-28T20:37:56.374Z,76.61
2023-09-28T20:40:27.169Z,76.69
2023-09-28T20:42:57.806Z,76.35
2023-09-28T20:45:28.557Z,76.14
2023-09-28T20:48:00.831Z,75.98
2023-09-28T20:50:33.556Z,76.38
2023-09-28T20:53:03.183Z,76.36
2023-09-28T20:55:33.905Z,76.37
2023-09-28T20:58:04.571Z,76.39
2023-09-28T21:00:37.600Z,76.39
2023-09-28T21:03:09.291Z,76.58
2023-09-28T21:05:42.080Z,76.36
2023-09-28T21:08:12.049Z,76.54
2023-09-28T21:10:42.606Z,76.79
2023-09-28T21:13:13.425Z,76.79
2023-09-28T21:15:44.225Z,76.64
2023-09-28T21:18:15.231Z,76.32
2023-09-28T21:20:48.315Z,76.55
2023-09-28T21:23:20.527Z,76.65
2023-09-28T21:25:51.448Z,76.62
2023-09-28T21:28:22.481Z,76.73
2023-09-28T21:30:53.316Z,76.46
2023-09-28T21:33:24.039Z,76.55
2023-09-28T21:35:56.773Z,76.52
2023-09-28T21:38:27.901Z,76.26
2023-09-28T21:40:58.886Z,76.45
2023-09-28T21:43:29.781Z,76.75
2023-09-28T21:46:00.824Z,76.56
2023-09-28T21:48:31.797Z,76.73
2023-09-28T21:51:05.771Z,76.69
2023-09-28T21:53:36.566Z,76.65
2023-09-28T21:56:07.535Z,77.04
2023-09-28T21:58:41.897Z,76.97
2023-09-28T22:01:13.750Z,76.80
2023-09-28T22:03:45.570Z,76.83
2023-09-28T22:06:18.802Z,76.83
2023-09-28T22:08:49.680Z,76.79
2023-09-28T22:11:20.515Z,76.66
2023-09-28T22:13:51.474Z,76.60
2023-09-28T22:16:22.268Z,76.80
2023-09-28T22:18:53.183Z,76.96
2023-09-28T22:21:26.188Z,76.96
2023-09-28T22:23:58.066Z,76.82
2023-09-28T22:26:28.817Z,77.07
2023-09-28T22:28:59.365Z,77.15
2023-09-28T22:31:30.590Z,76.88
2023-09-28T22:34:01.497Z,76.97
2023-09-28T22:36:34.229Z,76.80
2023-09-28T22:39:06.522Z,76.94
2023-09-28T22:41:37.550Z,76.83
2023-09-28T22:44:08.704Z,76.32
2023-09-28T22:46:39.435Z,76.04
2023-09-28T22:49:09.935Z,76.36
2023-09-28T22:51:42.016Z,76.30
2023-09-28T22:54:12.551Z,76.30
2023-09-28T22:56:43.248Z,76.38
2023-09-28T22:59:14.463Z,76.33
2023-09-28T23:01:45.377Z,76.40
2023-09-28T23:04:16.082Z,76.41
2023-09-28T23:06:48.259Z,75.97
2023-09-28T23:09:19.935Z,76.01
2023-09-28T23:11:50.847Z,75.97
2023-09-28T23:14:22.065Z,76.18
2023-09-28T23:17:02.797Z,76.06
2023-09-28T23:19:36.522Z,76.31
2023-09-28T23:22:08.864Z,75.64
2023-09-28T23:24:41.052Z,75.83
2023-09-28T23:27:11.919Z,75.96
2023-09-28T23:29:43.889Z,75.68
2023-09-28T23:32:14.632Z,76.03
2023-09-28T23:34:45.547Z,76.11
2023-09-28T23:37:17.928Z,76.28
2023-09-28T23:39:48.832Z,76.42
2023-09-28T23:42:20.476Z,76.42
2023-09-28T23:44:51.435Z,76.21
2023-09-28T23:47:23.437Z,76.53
2023-09-28T23:49:54.468Z,76.28
2023-09-28T23:52:27.265Z,76.44
2023-09-28T23:54:58.299Z,76.20
2023-09-28T23:57:29.685Z,76.32
